Time;durP1;ratioP1;P1;durP2;ratioP2;P2;SDS_P1;SDS_P2;PMS_P1;PMS_P2;Temp;Humidity;BMP_temperature;BMP_pressure;BME280_temperature;BME280_humidity;BME280_pressure;Samples;Min_cycle;Max_cycle;Signal;HPM_P1;HPM_P2
2022/08/17 00:01:36;;;;;;;11.43;9.95;;;;;;;;;;5050889;28;20020;-68
2022/08/17 00:04:02;;;;;;;13.00;10.02;;;;;;;;;;5048147;28;20111;-68
2022/08/17 00:06:28;;;;;;;12.10;9.57;;;;;;;;;;5052145;28;20100;-68
2022/08/17 00:08:59;;;;;;;11.60;10.35;;;;;;;;;;5052029;28;20020;-68
2022/08/17 00:11:27;;;;;;;14.63;10.82;;;;;;;;;;5049715;28;20447;-68
2022/08/17 00:13:54;;;;;;;14.90;9.25;;;;;;;;;;5052047;28;20346;-67
2022/08/17 00:16:22;;;;;;;10.63;9.00;;;;;;;;;;5051989;28;20037;-67
2022/08/17 00:18:49;;;;;;;10.10;8.60;;;;;;;;;;5052136;28;20579;-66
2022/08/17 00:21:16;;;;;;;9.70;8.30;;;;;;;;;;5051034;28;20094;-63
2022/08/17 00:23:42;;;;;;;8.13;7.43;;;;;;;;;;5050843;28;20024;-63
2022/08/17 00:26:09;;;;;;;8.65;7.85;;;;;;;;;;5052088;28;20115;-63
2022/08/17 00:28:34;;;;;;;11.20;9.05;;;;;;;;;;5052040;28;20472;-63
2022/08/17 00:31:00;;;;;;;9.30;8.30;;;;;;;;;;5052259;28;20025;-63
2022/08/17 00:33:27;;;;;;;8.80;8.00;;;;;;;;;;5051996;28;20017;-63
2022/08/17 00:35:53;;;;;;;11.80;8.68;;;;;;;;;;5051879;28;20485;-63
2022/08/17 00:38:18;;;;;;;11.07;9.88;;;;;;;;;;5051891;28;20017;-68
2022/08/17 00:40:46;;;;;;;9.38;8.43;;;;;;;;;;5054132;28;20469;-68
2022/08/17 00:43:19;;;;;;;15.05;9.02;;;;;;;;;;5055896;28;20111;-68
2022/08/17 00:45:45;;;;;;;10.50;8.95;;;;;;;;;;5053577;28;20025;-68
2022/08/17 00:48:11;;;;;;;10.98;8.52;;;;;;;;;;5055717;28;20028;-68
2022/08/17 00:50:40;;;;;;;9.70;8.80;;;;;;;;;;5054674;28;20737;-68
2022/08/17 00:53:05;;;;;;;9.52;8.65;;;;;;;;;;5053328;28;20491;-68
2022/08/17 00:55:31;;;;;;;10.93;8.70;;;;;;;;;;5055702;28;20116;-68
2022/08/17 00:57:58;;;;;;;9.63;8.43;;;;;;;;;;5054479;28;20389;-68
2022/08/17 01:00:36;;;;;;;10.02;8.65;;;;;;;;;;5052922;28;20473;-68
2022/08/17 01:03:05;;;;;;;9.32;8.32;;;;;;;;;;5054575;28;20025;-68
2022/08/17 01:05:31;;;;;;;9.50;8.40;;;;;;;;;;5054317;28;20487;-68
2022/08/17 01:07:58;;;;;;;11.18;7.40;;;;;;;;;;5054241;28;20060;-68
2022/08/17 01:10:27;;;;;;;9.00;6.72;;;;;;;;;;5055415;28;20050;-68
2022/08/17 01:12:53;;;;;;;8.02;7.07;;;;;;;;;;5055431;28;20439;-68
2022/08/17 01:15:19;;;;;;;8.27;7.47;;;;;;;;;;5055269;28;20027;-68
2022/08/17 01:17:44;;;;;;;12.40;9.02;;;;;;;;;;5055281;28;20034;-68
2022/08/17 01:20:10;;;;;;;11.52;9.50;;;;;;;;;;5055072;28;20381;-68
2022/08/17 01:22:35;;;;;;;10.10;9.10;;;;;;;;;;5055175;28;20404;-68
2022/08/17 01:25:04;;;;;;;13.23;8.25;;;;;;;;;;5055137;28;20017;-68
2022/08/17 01:27:30;;;;;;;11.20;8.90;;;;;;;;;;5055028;28;20013;-66
2022/08/17 01:29:58;;;;;;;12.73;7.93;;;;;;;;;;5055062;28;20515;-67
2022/08/17 01:32:25;;;;;;;12.40;9.23;;;;;;;;;;5052478;28;20108;-67
2022/08/17 01:34:51;;;;;;;7.53;6.72;;;;;;;;;;5054970;28;20031;-67
2022/08/17 01:37:18;;;;;;;7.45;6.60;;;;;;;;;;5054964;28;20444;-67
2022/08/17 01:39:46;;;;;;;6.55;5.85;;;;;;;;;;5052230;28;20032;-67
2022/08/17 01:42:30;;;;;;;9.10;6.95;;;;;;;;;;5054678;28;20037;-67
2022/08/17 01:44:56;;;;;;;8.38;7.53;;;;;;;;;;5052503;28;20017;-67
2022/08/17 01:47:22;;;;;;;8.73;7.30;;;;;;;;;;5054726;28;20419;-67
2022/08/17 01:49:47;;;;;;;12.27;9.55;;;;;;;;;;5054680;28;20021;-68
2022/08/17 01:52:13;;;;;;;10.23;8.77;;;;;;;;;;5054599;28;20477;-68
2022/08/17 01:54:40;;;;;;;9.70;8.32;;;;;;;;;;5054444;28;20096;-68
2022/08/17 01:57:06;;;;;;;11.90;8.48;;;;;;;;;;5054479;28;20025;-67
2022/08/17 01:59:32;;;;;;;9.80;7.82;;;;;;;;;;5053241;28;20036;-67
2022/08/17 02:01:58;;;;;;;12.57;7.55;;;;;;;;;;5054310;28;20025;-67
2022/08/17 02:04:24;;;;;;;7.18;6.53;;;;;;;;;;5051784;28;20032;-67
2022/08/17 02:06:49;;;;;;;8.20;7.43;;;;;;;;;;5054355;28;20032;-67
2022/08/17 02:09:15;;;;;;;9.25;6.70;;;;;;;;;;5054408;28;20021;-67
2022/08/17 02:11:40;;;;;;;8.07;7.00;;;;;;;;;;5054345;28;20013;-67
2022/08/17 02:14:07;;;;;;;7.95;7.18;;;;;;;;;;5054307;28;20029;-68
2022/08/17 02:16:33;;;;;;;9.60;7.55;;;;;;;;;;5054145;28;20029;-69
2022/08/17 02:19:00;;;;;;;8.93;8.07;;;;;;;;;;5052834;28;20025;-68
2022/08/17 02:21:26;;;;;;;8.90;8.07;;;;;;;;;;5054036;28;20020;-67
2022/08/17 02:23:51;;;;;;;11.10;8.38;;;;;;;;;;5054015;28;20112;-68
2022/08/17 02:26:17;;;;;;;8.75;7.95;;;;;;;;;;5053959;28;20029;-67
2022/08/17 02:28:42;;;;;;;8.63;7.55;;;;;;;;;;5052536;28;20033;-62
2022/08/17 02:31:09;;;;;;;9.10;7.15;;;;;;;;;;5053887;28;20104;-68
2022/08/17 02:33:35;;;;;;;9.45;7.47;;;;;;;;;;5052512;28;20029;-68
2022/08/17 02:36:01;;;;;;;8.30;7.50;;;;;;;;;;5053834;28;20494;-67
2022/08/17 02:38:27;;;;;;;10.05;7.97;;;;;;;;;;5053758;28;20111;-67
2022/08/17 02:40:52;;;;;;;9.10;7.55;;;;;;;;;;5053725;28;20111;-68
2022/08/17 02:43:19;;;;;;;8.43;7.45;;;;;;;;;;5053709;28;20115;-62
2022/08/17 02:45:44;;;;;;;7.93;7.13;;;;;;;;;;5051109;28;20017;-63
2022/08/17 02:48:10;;;;;;;7.07;6.47;;;;;;;;;;5053547;28;20033;-63
2022/08/17 02:50:36;;;;;;;6.38;5.78;;;;;;;;;;5053629;28;20017;-63
2022/08/17 02:53:03;;;;;;;6.35;5.90;;;;;;;;;;5053242;28;20090;-63
2022/08/17 02:55:32;;;;;;;7.53;6.80;;;;;;;;;;5052978;28;20048;-62
2022/08/17 02:57:57;;;;;;;7.43;6.68;;;;;;;;;;5053498;28;20067;-62
2022/08/17 03:00:23;;;;;;;7.30;6.63;;;;;;;;;;5052052;28;20495;-62
2022/08/17 03:02:48;;;;;;;7.32;6.72;;;;;;;;;;5052840;28;20020;-62
2022/08/17 03:05:15;;;;;;;7.30;6.60;;;;;;;;;;5053282;28;20013;-62
2022/08/17 03:07:41;;;;;;;6.82;6.28;;;;;;;;;;5053178;28;20468;-63
2022/08/17 03:10:07;;;;;;;8.05;5.90;;;;;;;;;;5053234;28;20013;-62
2022/08/17 03:12:35;;;;;;;6.35;5.38;;;;;;;;;;5053051;28;20095;-63
2022/08/17 03:15:03;;;;;;;7.03;6.18;;;;;;;;;;5053082;28;20009;-62
2022/08/17 03:17:28;;;;;;;8.45;6.50;;;;;;;;;;5053131;28;20381;-62
2022/08/17 03:19:54;;;;;;;7.22;6.50;;;;;;;;;;5052925;28;20021;-63
2022/08/17 03:22:19;;;;;;;6.85;6.28;;;;;;;;;;5052870;28;20025;-62
2022/08/17 03:24:44;;;;;;;6.78;6.18;;;;;;;;;;5051731;28;20484;-62
2022/08/17 03:27:10;;;;;;;7.05;6.47;;;;;;;;;;5053142;28;20025;-62
2022/08/17 03:29:35;;;;;;;7.20;6.60;;;;;;;;;;5052796;28;20882;-62
2022/08/17 03:32:09;;;;;;;7.05;6.40;;;;;;;;;;5052655;28;20017;-62
2022/08/17 03:34:34;;;;;;;7.57;6.90;;;;;;;;;;5051570;28;20039;-67
2022/08/17 03:36:59;;;;;;;8.18;7.30;;;;;;;;;;5052521;28;20017;-68
2022/08/17 03:39:25;;;;;;;10.45;8.30;;;;;;;;;;5052737;28;20028;-68
2022/08/17 03:41:50;;;;;;;16.75;7.97;;;;;;;;;;5052430;28;20476;-62
2022/08/17 03:44:16;;;;;;;10.55;7.38;;;;;;;;;;5052644;28;20029;-66
2022/08/17 03:57:39;;;;;;;9.77;7.60;;;;;;;;;;5053533;28;20037;-62
2022/08/17 04:00:05;;;;;;;8.38;7.57;;;;;;;;;;5053246;28;20036;-62
2022/08/17 04:02:37;;;;;;;9.93;6.85;;;;;;;;;;5052415;28;20021;-62
2022/08/17 04:05:03;;;;;;;8.15;7.35;;;;;;;;;;5052575;28;20536;-62
2022/08/17 04:07:29;;;;;;;6.43;5.90;;;;;;;;;;5052472;28;20075;-62
2022/08/17 04:09:56;;;;;;;7.63;6.88;;;;;;;;;;5052429;28;20465;-62
2022/08/17 04:12:22;;;;;;;9.18;7.07;;;;;;;;;;5052462;28;20033;-62
2022/08/17 04:14:47;;;;;;;15.07;8.75;;;;;;;;;;5051541;28;20041;-61
2022/08/17 04:17:13;;;;;;;10.27;9.27;;;;;;;;;;5051137;28;20052;-61
2022/08/17 04:19:39;;;;;;;11.95;9.40;;;;;;;;;;5052378;28;20066;-61
2022/08/17 04:22:04;;;;;;;13.35;10.07;;;;;;;;;;5052271;28;20017;-61
2022/08/17 04:24:30;;;;;;;14.00;10.15;;;;;;;;;;5052610;28;20108;-61
2022/08/17 04:26:57;;;;;;;12.25;10.13;;;;;;;;;;5053268;28;20017;-61
2022/08/17 04:29:24;;;;;;;12.55;9.93;;;;;;;;;;5051836;28;20032;-61
2022/08/17 04:31:50;;;;;;;11.15;9.90;;;;;;;;;;5052175;28;20017;-61
2022/08/17 04:34:16;;;;;;;13.27;9.77;;;;;;;;;;5052850;28;20064;-61
2022/08/17 04:36:41;;;;;;;12.02;10.43;;;;;;;;;;5051301;28;20123;-61
2022/08/17 04:39:07;;;;;;;13.93;9.90;;;;;;;;;;5052121;28;20029;-61
2022/08/17 04:42:17;;;;;;;15.15;10.98;;;;;;;;;;5053138;28;20461;-61
2022/08/17 04:44:18;;;;;;;11.95;10.60;;;;;;;;;;5042546;28;20048;-61
2022/08/17 04:46:43;;;;;;;11.73;9.43;;;;;;;;;;5053359;28;20017;-61
2022/08/17 04:49:09;;;;;;;11.85;9.40;;;;;;;;;;5053141;28;20431;-61
2022/08/17 04:51:44;;;;;;;12.40;10.35;;;;;;;;;;5053038;28;20044;-61
2022/08/17 04:54:11;;;;;;;11.38;9.90;;;;;;;;;;5053146;28;20036;-61
2022/08/17 04:56:37;;;;;;;13.20;10.15;;;;;;;;;;5053258;28;20052;-61
2022/08/17 04:59:09;;;;;;;11.95;9.93;;;;;;;;;;5053189;28;20028;-61
2022/08/17 05:01:35;;;;;;;10.95;9.80;;;;;;;;;;5052953;28;20043;-61
2022/08/17 05:04:04;;;;;;;10.60;9.50;;;;;;;;;;5052031;28;20510;-61
2022/08/17 05:06:29;;;;;;;10.60;9.45;;;;;;;;;;5053031;28;20028;-61
2022/08/17 05:08:55;;;;;;;12.95;9.88;;;;;;;;;;5052777;28;20017;-61
2022/08/17 05:11:21;;;;;;;10.90;9.35;;;;;;;;;;5052112;28;20044;-61
2022/08/17 05:13:48;;;;;;;10.98;9.90;;;;;;;;;;5052967;28;20021;-61
2022/08/17 05:16:14;;;;;;;15.25;11.18;;;;;;;;;;5051628;28;20049;-61
2022/08/17 05:18:40;;;;;;;16.90;12.30;;;;;;;;;;5052948;28;20428;-61
2022/08/17 05:21:06;;;;;;;15.43;11.48;;;;;;;;;;5053420;28;20040;-61
2022/08/17 05:23:32;;;;;;;15.35;12.32;;;;;;;;;;5053206;28;20457;-61
2022/08/17 05:25:57;;;;;;;16.58;12.50;;;;;;;;;;5054815;28;20017;-61
2022/08/17 05:28:25;;;;;;;14.90;12.38;;;;;;;;;;5056520;28;20520;-61
2022/08/17 05:30:51;;;;;;;15.93;13.57;;;;;;;;;;5056741;28;20029;-61
2022/08/17 05:33:18;;;;;;;15.95;13.05;;;;;;;;;;5056448;28;20032;-61
2022/08/17 05:35:45;;;;;;;16.63;13.63;;;;;;;;;;5056650;28;20028;-61
2022/08/17 05:38:12;;;;;;;16.92;13.77;;;;;;;;;;5056896;28;20016;-61
2022/08/17 05:40:37;;;;;;;19.67;14.13;;;;;;;;;;5056486;28;20037;-61
2022/08/17 05:43:04;;;;;;;20.33;13.65;;;;;;;;;;5056292;28;20103;-61
2022/08/17 05:45:30;;;;;;;18.02;13.57;;;;;;;;;;5056751;28;20074;-61
2022/08/17 05:47:55;;;;;;;20.42;14.05;;;;;;;;;;5056169;28;20033;-61
2022/08/17 05:50:22;;;;;;;22.25;14.68;;;;;;;;;;5056684;28;20032;-61
2022/08/17 05:52:53;;;;;;;22.40;15.07;;;;;;;;;;5055924;28;20041;-61
2022/08/17 05:55:27;;;;;;;19.95;15.07;;;;;;;;;;5056277;28;20063;-61
2022/08/17 05:58:11;;;;;;;19.85;14.38;;;;;;;;;;5054704;28;20025;-61
2022/08/17 06:00:41;;;;;;;19.02;14.80;;;;;;;;;;5056689;28;20025;-61
2022/08/17 06:03:25;;;;;;;23.15;15.95;;;;;;;;;;5056189;28;20021;-61
2022/08/17 06:05:51;;;;;;;17.83;14.52;;;;;;;;;;5056105;28;20037;-61
2022/08/17 06:08:16;;;;;;;18.13;13.95;;;;;;;;;;5056059;28;20024;-61
2022/08/17 06:10:57;;;;;;;17.13;13.25;;;;;;;;;;5056002;28;20037;-61
2022/08/17 06:13:30;;;;;;;20.88;14.95;;;;;;;;;;5054497;28;20032;-61
2022/08/17 06:16:01;;;;;;;20.08;13.95;;;;;;;;;;5054326;28;20033;-61
2022/08/17 06:18:30;;;;;;;16.10;11.95;;;;;;;;;;5055877;28;20029;-61
2022/08/17 06:20:57;;;;;;;19.85;13.27;;;;;;;;;;5055433;28;20013;-61
2022/08/17 06:23:31;;;;;;;19.80;13.18;;;;;;;;;;5055492;28;20442;-61
2022/08/17 06:25:58;;;;;;;21.10;14.50;;;;;;;;;;5054542;28;20022;-61
2022/08/17 06:28:29;;;;;;;17.75;13.48;;;;;;;;;;5054156;28;20047;-61
2022/08/17 06:31:02;;;;;;;21.40;15.13;;;;;;;;;;5055624;28;20059;-61
2022/08/17 06:33:32;;;;;;;17.88;14.05;;;;;;;;;;5055851;28;20480;-61
2022/08/17 06:36:16;;;;;;;21.05;15.00;;;;;;;;;;5055254;28;20111;-61
2022/08/17 06:38:51;;;;;;;18.58;14.48;;;;;;;;;;5055219;28;20062;-61
2022/08/17 06:41:36;;;;;;;19.85;14.68;;;;;;;;;;5055387;28;20032;-61
2022/08/17 06:44:08;;;;;;;20.30;14.35;;;;;;;;;;5055422;28;20029;-61
2022/08/17 06:46:47;;;;;;;19.15;14.57;;;;;;;;;;5055068;28;20021;-61
2022/08/17 06:49:25;;;;;;;19.90;14.50;;;;;;;;;;5055588;28;20465;-61
2022/08/17 06:51:52;;;;;;;19.58;14.13;;;;;;;;;;5053500;28;20090;-61
2022/08/17 06:54:18;;;;;;;21.60;13.85;;;;;;;;;;5054944;28;20029;-61
2022/08/17 06:56:52;;;;;;;14.43;12.20;;;;;;;;;;5055132;28;20037;-61
2022/08/17 06:59:20;;;;;;;21.73;14.05;;;;;;;;;;5054213;28;20040;-61
2022/08/17 07:01:47;;;;;;;16.33;13.55;;;;;;;;;;5054699;28;20028;-61
2022/08/17 07:04:17;;;;;;;22.42;14.88;;;;;;;;;;5053487;28;20025;-61
2022/08/17 07:08:00;;;;;;;22.57;15.20;;;;;;;;;;5054984;28;20020;-61
2022/08/17 07:09:52;;;;;;;16.13;13.70;;;;;;;;;;5054847;28;20028;-61
2022/08/17 07:12:21;;;;;;;18.70;15.15;;;;;;;;;;5054818;28;20456;-61
2022/08/17 07:14:56;;;;;;;19.60;14.80;;;;;;;;;;5054488;28;20036;-61
2022/08/17 07:17:22;;;;;;;16.92;13.98;;;;;;;;;;5054764;28;20159;-61
2022/08/17 07:19:48;;;;;;;17.35;13.73;;;;;;;;;;5054684;28;20025;-61
2022/08/17 07:22:14;;;;;;;22.45;13.95;;;;;;;;;;5054572;28;20033;-61
2022/08/17 07:24:46;;;;;;;17.08;15.27;;;;;;;;;;5054331;28;20048;-62
2022/08/17 07:27:13;;;;;;;16.70;14.18;;;;;;;;;;5054572;28;20025;-61
2022/08/17 07:29:42;;;;;;;14.73;11.73;;;;;;;;;;5053065;28;20013;-61
2022/08/17 07:32:10;;;;;;;19.75;13.85;;;;;;;;;;5054460;28;20029;-61
2022/08/17 07:34:54;;;;;;;17.58;13.27;;;;;;;;;;5052890;28;20111;-61
2022/08/17 07:37:20;;;;;;;16.05;12.13;;;;;;;;;;5054385;28;20029;-61
2022/08/17 07:39:45;;;;;;;12.73;11.43;;;;;;;;;;5054055;28;20021;-61
2022/08/17 07:42:11;;;;;;;13.82;11.55;;;;;;;;;;5053895;28;20064;-62
2022/08/17 07:44:48;;;;;;;15.55;12.30;;;;;;;;;;5052794;28;20484;-61
2022/08/17 07:49:58;;;;;;;17.30;12.52;;;;;;;;;;5052521;28;20057;-61
2022/08/17 07:52:29;;;;;;;15.93;12.30;;;;;;;;;;5053661;28;20084;-61
2022/08/17 07:54:55;;;;;;;13.57;11.70;;;;;;;;;;5052549;28;20036;-61
2022/08/17 07:57:22;;;;;;;12.40;9.88;;;;;;;;;;5053821;28;20025;-61
2022/08/17 07:59:59;;;;;;;13.80;11.20;;;;;;;;;;5053781;28;20469;-61
2022/08/17 08:02:51;;;;;;;23.27;10.95;;;;;;;;;;5052360;28;20024;-61
2022/08/17 08:05:19;;;;;;;12.82;9.73;;;;;;;;;;5052432;28;20041;-61
2022/08/17 08:07:57;;;;;;;11.30;9.40;;;;;;;;;;5053894;28;20027;-61
2022/08/17 08:10:26;;;;;;;13.25;10.50;;;;;;;;;;5053571;28;20029;-61
2022/08/17 08:13:14;;;;;;;12.63;10.25;;;;;;;;;;5053846;28;20052;-61
2022/08/17 08:15:47;;;;;;;15.88;10.43;;;;;;;;;;5050436;28;20033;-61
2022/08/17 08:18:33;;;;;;;16.45;11.25;;;;;;;;;;5054068;28;20061;-61
2022/08/17 08:21:02;;;;;;;13.68;10.75;;;;;;;;;;5053300;28;20091;-61
2022/08/17 08:23:30;;;;;;;14.48;10.57;;;;;;;;;;5053746;28;20036;-61
2022/08/17 08:26:16;;;;;;;16.23;10.25;;;;;;;;;;5053460;28;20025;-61
2022/08/17 08:29:02;;;;;;;15.77;11.63;;;;;;;;;;5053097;28;20045;-61
2022/08/17 08:31:27;;;;;;;14.15;10.45;;;;;;;;;;5053665;28;20043;-61
2022/08/17 08:34:09;;;;;;;13.13;10.63;;;;;;;;;;5053909;28;20116;-61
2022/08/17 08:36:38;;;;;;;15.48;10.35;;;;;;;;;;5052493;28;20029;-61
2022/08/17 08:39:30;;;;;;;13.05;9.57;;;;;;;;;;5053322;28;20013;-61
2022/08/17 08:41:57;;;;;;;13.43;10.98;;;;;;;;;;5048003;28;20558;-61
2022/08/17 08:44:30;;;;;;;15.05;11.95;;;;;;;;;;5053563;28;20017;-61
2022/08/17 08:47:05;;;;;;;16.88;11.95;;;;;;;;;;5052095;28;20036;-61
2022/08/17 08:49:39;;;;;;;14.07;10.43;;;;;;;;;;5052650;28;20513;-61
2022/08/17 08:52:12;;;;;;;18.17;11.90;;;;;;;;;;5051803;28;20087;-61
2022/08/17 08:54:37;;;;;;;15.85;9.70;;;;;;;;;;5053486;28;20095;-61
2022/08/17 08:57:26;;;;;;;15.00;9.90;;;;;;;;;;5053167;28;20025;-61
2022/08/17 08:59:51;;;;;;;12.18;9.88;;;;;;;;;;5045282;28;20403;-61
2022/08/17 09:02:22;;;;;;;14.75;10.88;;;;;;;;;;5056953;28;20025;-61
2022/08/17 09:05:01;;;;;;;14.15;10.27;;;;;;;;;;5056946;28;20087;-61
2022/08/17 09:07:33;;;;;;;14.15;10.35;;;;;;;;;;5055646;28;20025;-61
2022/08/17 09:10:07;;;;;;;12.82;10.05;;;;;;;;;;5057126;28;20032;-61
2022/08/17 09:12:44;;;;;;;12.85;9.90;;;;;;;;;;5056815;28;20059;-62
2022/08/17 09:15:30;;;;;;;13.10;10.25;;;;;;;;;;5039786;28;20036;-61
2022/08/17 09:18:02;;;;;;;16.23;11.73;;;;;;;;;;5057040;28;20060;-61
2022/08/17 09:20:34;;;;;;;13.20;10.85;;;;;;;;;;5057167;28;20040;-61
2022/08/17 09:23:12;;;;;;;12.57;10.85;;;;;;;;;;5056888;28;20021;-61
2022/08/17 09:25:48;;;;;;;11.68;10.43;;;;;;;;;;5057209;28;20438;-61
2022/08/17 09:28:26;;;;;;;12.82;10.20;;;;;;;;;;5055274;28;20051;-61
2022/08/17 09:30:54;;;;;;;10.93;9.63;;;;;;;;;;5056785;28;20128;-61
2022/08/17 09:33:24;;;;;;;14.63;10.70;;;;;;;;;;5056470;28;20067;-61
2022/08/17 09:35:54;;;;;;;14.30;10.30;;;;;;;;;;5055156;28;20033;-61
2022/08/17 09:38:42;;;;;;;12.38;10.73;;;;;;;;;;5056393;28;20078;-61
2022/08/17 09:41:14;;;;;;;14.02;10.80;;;;;;;;;;5056209;28;20025;-61
2022/08/17 09:43:43;;;;;;;15.95;10.55;;;;;;;;;;5055017;28;20029;-61
2022/08/17 09:46:18;;;;;;;13.23;10.32;;;;;;;;;;5056209;28;20100;-62
2022/08/17 09:48:47;;;;;;;11.98;10.23;;;;;;;;;;5056419;28;20469;-61
2022/08/17 09:51:16;;;;;;;9.88;8.73;;;;;;;;;;5056011;28;20053;-61
2022/08/17 09:53:42;;;;;;;10.73;9.07;;;;;;;;;;5056313;28;20028;-61
2022/08/17 09:56:10;;;;;;;13.93;10.02;;;;;;;;;;5056583;28;20377;-62
2022/08/17 09:58:55;;;;;;;11.40;9.73;;;;;;;;;;5056252;28;20032;-61
2022/08/17 10:01:39;;;;;;;13.38;10.38;;;;;;;;;;5056158;28;20036;-61
2022/08/17 10:04:22;;;;;;;15.05;10.73;;;;;;;;;;5056137;28;20025;-61
2022/08/17 10:06:48;;;;;;;11.95;10.10;;;;;;;;;;5055817;28;20029;-61
2022/08/17 10:09:22;;;;;;;14.10;10.00;;;;;;;;;;5055772;28;20091;-61
2022/08/17 10:14:45;;;;;;;13.48;10.25;;;;;;;;;;5055944;28;20033;-61
2022/08/17 10:17:19;;;;;;;11.73;9.77;;;;;;;;;;5056214;28;20036;-61
2022/08/17 10:20:03;;;;;;;16.35;10.10;;;;;;;;;;5055564;28;20366;-61
2022/08/17 10:28:08;;;;;;;12.35;9.68;;;;;;;;;;5055470;28;20468;-61
2022/08/17 10:30:36;;;;;;;12.13;8.68;;;;;;;;;;5055686;28;20381;-61
2022/08/17 10:33:05;;;;;;;11.20;9.43;;;;;;;;;;5055667;28;20017;-61
2022/08/17 10:35:38;;;;;;;17.70;10.63;;;;;;;;;;5055651;28;20075;-61
2022/08/17 10:38:20;;;;;;;10.90;9.52;;;;;;;;;;5055789;28;20040;-61
2022/08/17 10:41:01;;;;;;;11.95;10.70;;;;;;;;;;5055061;28;20028;-61
2022/08/17 10:43:43;;;;;;;15.10;10.90;;;;;;;;;;5055444;28;20112;-61
2022/08/17 10:46:12;;;;;;;12.88;10.25;;;;;;;;;;5055350;28;20025;-61
2022/08/17 10:48:38;;;;;;;9.80;8.52;;;;;;;;;;5055321;28;20017;-61
2022/08/17 10:51:06;;;;;;;11.40;9.30;;;;;;;;;;5054837;28;20086;-61
2022/08/17 10:53:31;;;;;;;11.55;10.30;;;;;;;;;;5055240;28;20427;-61
2022/08/17 10:56:12;;;;;;;12.82;9.57;;;;;;;;;;5054023;28;20037;-61
2022/08/17 10:58:46;;;;;;;13.00;8.90;;;;;;;;;;5055090;28;20029;-62
2022/08/17 11:01:12;;;;;;;9.48;8.48;;;;;;;;;;5054969;28;20025;-61
2022/08/17 11:04:08;;;;;;;8.93;8.00;;;;;;;;;;5054693;28;20009;-61
2022/08/17 11:06:36;;;;;;;13.88;9.48;;;;;;;;;;5000916;28;20046;-62
2022/08/17 11:09:08;;;;;;;11.52;9.82;;;;;;;;;;5053399;28;20084;-61
2022/08/17 11:11:37;;;;;;;10.63;8.70;;;;;;;;;;5054562;28;20041;-61
2022/08/17 11:14:16;;;;;;;9.85;8.40;;;;;;;;;;5054833;28;20043;-61
2022/08/17 11:16:44;;;;;;;10.75;7.90;;;;;;;;;;5053195;28;20063;-62
2022/08/17 11:19:12;;;;;;;9.65;8.73;;;;;;;;;;5053562;28;20063;-61
2022/08/17 11:22:07;;;;;;;10.82;8.82;;;;;;;;;;5054827;28;20090;-62
2022/08/17 11:24:34;;;;;;;12.25;8.15;;;;;;;;;;5040778;28;20462;-61
2022/08/17 11:27:06;;;;;;;9.35;8.43;;;;;;;;;;5054337;28;20373;-62
2022/08/17 11:29:37;;;;;;;9.35;8.45;;;;;;;;;;5053387;28;20032;-61
2022/08/17 11:32:03;;;;;;;9.73;8.63;;;;;;;;;;5054511;28;20033;-61
2022/08/17 11:34:30;;;;;;;9.20;8.02;;;;;;;;;;5054489;28;20043;-61
2022/08/17 11:36:55;;;;;;;10.48;8.15;;;;;;;;;;5054176;28;20048;-62
2022/08/17 11:39:27;;;;;;;8.10;7.35;;;;;;;;;;5054427;28;20025;-61
2022/08/17 11:42:04;;;;;;;9.43;7.63;;;;;;;;;;5053991;28;20086;-61
2022/08/17 11:44:36;;;;;;;10.65;9.18;;;;;;;;;;5054528;28;20020;-61
2022/08/17 11:52:55;;;;;;;9.25;8.35;;;;;;;;;;5053693;28;20489;-61
2022/08/17 11:55:27;;;;;;;10.45;9.45;;;;;;;;;;5054133;28;20031;-61
2022/08/17 11:57:59;;;;;;;10.32;9.32;;;;;;;;;;5053742;28;20138;-61
2022/08/17 12:00:57;;;;;;;13.32;9.60;;;;;;;;;;5053932;28;20025;-62
2022/08/17 12:03:23;;;;;;;9.77;8.50;;;;;;;;;;5020417;28;20404;-62
2022/08/17 12:05:52;;;;;;;15.38;9.25;;;;;;;;;;5052450;28;20111;-61
2022/08/17 12:08:20;;;;;;;11.88;9.88;;;;;;;;;;5054186;28;20025;-62
2022/08/17 12:10:57;;;;;;;8.88;8.13;;;;;;;;;;5053911;28;20389;-61
2022/08/17 12:13:23;;;;;;;10.52;9.32;;;;;;;;;;5052282;28;20037;-61
2022/08/17 12:15:51;;;;;;;11.00;9.00;;;;;;;;;;5053542;28;20043;-61
2022/08/17 12:18:18;;;;;;;12.50;8.90;;;;;;;;;;5053506;28;20032;-61
2022/08/17 12:20:46;;;;;;;9.90;8.32;;;;;;;;;;5053443;28;20084;-61
2022/08/17 12:23:23;;;;;;;12.18;9.32;;;;;;;;;;5053783;28;20029;-62
2022/08/17 12:25:55;;;;;;;10.05;9.13;;;;;;;;;;5052196;28;20435;-61
2022/08/17 12:28:26;;;;;;;9.35;8.10;;;;;;;;;;5053469;28;20389;-61
2022/08/17 12:30:52;;;;;;;9.25;8.35;;;;;;;;;;5052530;28;20087;-61
2022/08/17 12:33:20;;;;;;;10.95;9.95;;;;;;;;;;5052141;28;20064;-61
2022/08/17 12:35:45;;;;;;;12.13;10.93;;;;;;;;;;5055427;28;20029;-61
2022/08/17 12:38:14;;;;;;;10.68;9.65;;;;;;;;;;5057816;28;20024;-62
2022/08/17 12:40:51;;;;;;;11.10;10.10;;;;;;;;;;5057952;28;20123;-61
2022/08/17 12:43:18;;;;;;;12.10;11.00;;;;;;;;;;5057386;28;20100;-62
2022/08/17 12:45:45;;;;;;;12.82;11.50;;;;;;;;;;5057399;28;20423;-61
2022/08/17 12:48:11;;;;;;;13.48;12.05;;;;;;;;;;5057356;28;20047;-61
2022/08/17 12:50:37;;;;;;;13.63;12.27;;;;;;;;;;5057270;28;20020;-61
2022/08/17 12:53:09;;;;;;;12.98;11.48;;;;;;;;;;5057034;28;20052;-61
2022/08/17 12:55:35;;;;;;;13.10;11.90;;;;;;;;;;5039366;28;20025;-61
2022/08/17 12:58:01;;;;;;;13.55;12.27;;;;;;;;;;5057143;28;20017;-61
2022/08/17 13:00:34;;;;;;;12.05;10.85;;;;;;;;;;5055746;28;20124;-61
2022/08/17 13:03:02;;;;;;;12.20;10.98;;;;;;;;;;5056181;28;20121;-61
2022/08/17 13:05:36;;;;;;;12.70;11.40;;;;;;;;;;5039132;28;20020;-61
2022/08/17 13:08:22;;;;;;;12.18;11.05;;;;;;;;;;5057218;28;20025;-61
2022/08/17 13:10:55;;;;;;;14.68;13.27;;;;;;;;;;5056666;28;20493;-61
2022/08/17 13:13:22;;;;;;;15.10;12.73;;;;;;;;;;5055866;28;20047;-61
2022/08/17 13:15:55;;;;;;;14.00;12.45;;;;;;;;;;5056848;28;20031;-61
2022/08/17 13:18:39;;;;;;;13.57;12.27;;;;;;;;;;5057183;28;20033;-61
2022/08/17 13:21:10;;;;;;;14.68;13.30;;;;;;;;;;5055404;28;20135;-61
2022/08/17 13:23:35;;;;;;;16.13;14.48;;;;;;;;;;5056632;28;20028;-61
2022/08/17 13:26:04;;;;;;;16.25;14.65;;;;;;;;;;5057177;28;20017;-61
2022/08/17 13:28:31;;;;;;;16.42;14.38;;;;;;;;;;5056873;28;20028;-61
2022/08/17 13:31:15;;;;;;;15.75;14.20;;;;;;;;;;5056803;28;20090;-61
2022/08/17 13:33:41;;;;;;;16.25;14.55;;;;;;;;;;5056781;28;20044;-61
2022/08/17 13:36:07;;;;;;;15.00;13.68;;;;;;;;;;5056604;28;20104;-62
2022/08/17 13:38:45;;;;;;;16.10;14.52;;;;;;;;;;5055416;28;20064;-61
2022/08/17 13:41:32;;;;;;;16.42;14.82;;;;;;;;;;5056245;28;20029;-61
2022/08/17 13:43:57;;;;;;;16.25;14.60;;;;;;;;;;5055941;28;20025;-61
2022/08/17 13:46:27;;;;;;;16.15;14.45;;;;;;;;;;5055683;28;20017;-61
2022/08/17 13:49:03;;;;;;;16.30;14.70;;;;;;;;;;5054690;28;20090;-61
2022/08/17 13:51:32;;;;;;;15.23;13.65;;;;;;;;;;5056010;28;20044;-61
2022/08/17 13:53:59;;;;;;;15.30;13.93;;;;;;;;;;5055943;28;20462;-62
2022/08/17 13:56:29;;;;;;;13.82;12.57;;;;;;;;;;5054018;28;20037;-62
2022/08/17 13:58:57;;;;;;;16.05;13.68;;;;;;;;;;5054929;28;20068;-61
2022/08/17 14:01:31;;;;;;;17.92;15.18;;;;;;;;;;5054845;28;20024;-61
2022/08/17 14:03:57;;;;;;;15.95;14.43;;;;;;;;;;5053591;28;20017;-61
2022/08/17 14:06:23;;;;;;;17.42;15.10;;;;;;;;;;5054813;28;20384;-61
2022/08/17 14:08:52;;;;;;;16.65;15.15;;;;;;;;;;5054797;28;20029;-62
2022/08/17 14:11:18;;;;;;;16.40;14.70;;;;;;;;;;5054738;28;20013;-61
2022/08/17 14:13:45;;;;;;;16.50;14.88;;;;;;;;;;5053543;28;20392;-61
2022/08/17 14:16:10;;;;;;;13.98;12.75;;;;;;;;;;5054704;28;20017;-61
2022/08/17 14:18:36;;;;;;;14.60;13.27;;;;;;;;;;5054596;28;20366;-61
2022/08/17 14:21:02;;;;;;;14.00;12.63;;;;;;;;;;5054494;28;20025;-60
2022/08/17 14:23:30;;;;;;;15.02;13.27;;;;;;;;;;5054512;28;20029;-60
2022/08/17 14:25:56;;;;;;;15.85;13.90;;;;;;;;;;5053641;28;20021;-60
2022/08/17 14:28:22;;;;;;;15.70;14.20;;;;;;;;;;5053254;28;20033;-60
2022/08/17 14:30:49;;;;;;;15.52;14.02;;;;;;;;;;5054408;28;20052;-60
2022/08/17 14:33:21;;;;;;;14.98;13.30;;;;;;;;;;5054307;28;20025;-60
2022/08/17 14:35:52;;;;;;;16.15;14.50;;;;;;;;;;5054270;28;20032;-60
2022/08/17 14:38:18;;;;;;;15.43;13.93;;;;;;;;;;5054187;28;20037;-60
2022/08/17 14:40:44;;;;;;;15.18;13.73;;;;;;;;;;5054319;28;20025;-60
2022/08/17 14:43:10;;;;;;;16.50;13.48;;;;;;;;;;5055078;28;20111;-60
2022/08/17 14:45:35;;;;;;;15.98;13.80;;;;;;;;;;5055389;28;20055;-60
2022/08/17 14:48:02;;;;;;;14.52;13.05;;;;;;;;;;5054048;28;20082;-60
2022/08/17 14:50:28;;;;;;;14.07;12.63;;;;;;;;;;5054046;28;20369;-60
2022/08/17 14:52:57;;;;;;;9.88;8.98;;;;;;;;;;5055035;28;20056;-60
2022/08/17 14:55:22;;;;;;;12.07;10.25;;;;;;;;;;5055154;28;20078;-60
2022/08/17 14:57:49;;;;;;;11.30;10.27;;;;;;;;;;5054544;28;20021;-60
2022/08/17 15:00:15;;;;;;;11.25;10.15;;;;;;;;;;5054752;28;20021;-60
2022/08/17 15:02:55;;;;;;;12.63;9.73;;;;;;;;;;5053566;28;20035;-60
2022/08/17 15:05:22;;;;;;;10.80;9.73;;;;;;;;;;5055168;28;20040;-60
2022/08/17 15:07:48;;;;;;;14.23;10.93;;;;;;;;;;5054975;28;20017;-60
2022/08/17 15:10:14;;;;;;;11.13;9.38;;;;;;;;;;5054960;28;20025;-60